sensor_id;sensor_type;location;lat;lon;timestamp;P1;durP1;ratioP1;P2;durP2;ratioP2
74122;SDS011;62474;50.780;15.074;2022-12-07T06:17:34;21.35;;;6.82;;
74122;SDS011;62474;50.780;15.074;2022-12-07T06:20:00;26.15;;;8.70;;
74122;SDS011;62474;50.780;15.074;2022-12-07T06:22:26;20.50;;;6.68;;
74122;SDS011;62474;50.780;15.074;2022-12-07T06:35:41;25.67;;;9.15;;
74122;SDS011;62474;50.780;15.074;2022-12-07T06:38:07;26.67;;;7.90;;
74122;SDS011;62474;50.780;15.074;2022-12-07T06:40:33;30.73;;;9.40;;
74122;SDS011;62474;50.780;15.074;2022-12-07T06:42:59;24.95;;;8.48;;
74122;SDS011;62474;50.780;15.074;2022-12-07T06:45:25;31.77;;;9.65;;
74122;SDS011;62474;50.780;15.074;2022-12-07T06:47:51;27.20;;;8.57;;
74122;SDS011;62474;50.780;15.074;2022-12-07T06:50:17;25.93;;;8.70;;
74122;SDS011;62474;50.780;15.074;2022-12-07T06:52:43;25.10;;;8.48;;
74122;SDS011;62474;50.780;15.074;2022-12-07T06:55:09;23.15;;;8.02;;
74122;SDS011;62474;50.780;15.074;2022-12-07T06:57:35;23.77;;;8.40;;
74122;SDS011;62474;50.780;15.074;2022-12-07T07:00:01;20.17;;;6.83;;
74122;SDS011;62474;50.780;15.074;2022-12-07T15:37:19;11.88;;;6.10;;
74122;SDS011;62474;50.780;15.074;2022-12-07T15:39:45;12.65;;;6.22;;
74122;SDS011;62474;50.780;15.074;2022-12-07T15:42:11;14.80;;;7.18;;
74122;SDS011;62474;50.780;15.074;2022-12-07T15:44:37;19.17;;;7.18;;
74122;SDS011;62474;50.780;15.074;2022-12-07T15:47:21;17.73;;;7.20;;
74122;SDS011;62474;50.780;15.074;2022-12-07T15:49:47;16.90;;;7.40;;
74122;SDS011;62474;50.780;15.074;2022-12-07T15:52:13;15.55;;;7.13;;
74122;SDS011;62474;50.780;15.074;2022-12-07T15:54:40;13.45;;;6.57;;
74122;SDS011;62474;50.780;15.074;2022-12-07T15:57:06;13.50;;;6.78;;
74122;SDS011;62474;50.780;15.074;2022-12-07T15:59:32;13.30;;;7.00;;
74122;SDS011;62474;50.780;15.074;2022-12-07T16:01:58;13.03;;;6.17;;
74122;SDS011;62474;50.780;15.074;2022-12-07T16:04:26;11.88;;;5.82;;
74122;SDS011;62474;50.780;15.074;2022-12-07T16:06:53;15.63;;;6.80;;
74122;SDS011;62474;50.780;15.074;2022-12-07T16:09:19;12.68;;;5.68;;
74122;SDS011;62474;50.780;15.074;2022-12-07T16:11:45;14.57;;;6.90;;
74122;SDS011;62474;50.780;15.074;2022-12-07T16:14:11;12.98;;;5.78;;
74122;SDS011;62474;50.780;15.074;2022-12-07T16:16:37;10.80;;;4.97;;
74122;SDS011;62474;50.780;15.074;2022-12-07T16:19:05;12.73;;;5.68;;
74122;SDS011;62474;50.780;15.074;2022-12-07T16:21:32;9.98;;;4.65;;
74122;SDS011;62474;50.780;15.074;2022-12-07T16:23:59;13.63;;;4.70;;
74122;SDS011;62474;50.780;15.074;2022-12-07T16:26:25;11.05;;;5.25;;
74122;SDS011;62474;50.780;15.074;2022-12-07T16:28:51;10.25;;;4.57;;
74122;SDS011;62474;50.780;15.074;2022-12-07T16:31:20;10.88;;;4.63;;
74122;SDS011;62474;50.780;15.074;2022-12-07T16:33:46;8.70;;;4.28;;
74122;SDS011;62474;50.780;15.074;2022-12-07T16:36:13;10.77;;;4.87;;
74122;SDS011;62474;50.780;15.074;2022-12-07T16:38:41;11.05;;;5.47;;
74122;SDS011;62474;50.780;15.074;2022-12-07T16:41:07;12.95;;;5.10;;
74122;SDS011;62474;50.780;15.074;2022-12-07T16:43:34;12.02;;;4.80;;
74122;SDS011;62474;50.780;15.074;2022-12-07T16:46:00;10.40;;;5.18;;
74122;SDS011;62474;50.780;15.074;2022-12-07T16:48:27;10.73;;;5.23;;
74122;SDS011;62474;50.780;15.074;2022-12-07T16:50:53;11.27;;;5.18;;
74122;SDS011;62474;50.780;15.074;2022-12-07T16:53:19;14.10;;;6.25;;
74122;SDS011;62474;50.780;15.074;2022-12-07T16:55:45;12.18;;;6.28;;
74122;SDS011;62474;50.780;15.074;2022-12-07T16:58:12;13.88;;;7.53;;
74122;SDS011;62474;50.780;15.074;2022-12-07T17:00:39;12.00;;;5.10;;
74122;SDS011;62474;50.780;15.074;2022-12-07T17:03:05;14.82;;;7.22;;
74122;SDS011;62474;50.780;15.074;2022-12-07T17:05:31;18.30;;;8.30;;
74122;SDS011;62474;50.780;15.074;2022-12-07T17:07:57;95.50;;;28.60;;
74122;SDS011;62474;50.780;15.074;2022-12-07T17:10:24;28.67;;;13.80;;
74122;SDS011;62474;50.780;15.074;2022-12-07T17:12:50;21.47;;;11.17;;
74122;SDS011;62474;50.780;15.074;2022-12-07T17:15:16;44.60;;;20.52;;
74122;SDS011;62474;50.780;15.074;2022-12-07T17:17:43;54.35;;;22.98;;
74122;SDS011;62474;50.780;15.074;2022-12-07T17:20:10;39.22;;;17.75;;
74122;SDS011;62474;50.780;15.074;2022-12-07T17:22:36;26.60;;;12.48;;
74122;SDS011;62474;50.780;15.074;2022-12-07T17:25:03;24.27;;;10.73;;
74122;SDS011;62474;50.780;15.074;2022-12-07T17:27:29;27.00;;;12.55;;
74122;SDS011;62474;50.780;15.074;2022-12-07T17:29:55;29.73;;;13.65;;
74122;SDS011;62474;50.780;15.074;2022-12-07T17:32:21;27.58;;;12.80;;
74122;SDS011;62474;50.780;15.074;2022-12-07T17:34:47;25.75;;;12.02;;
74122;SDS011;62474;50.780;15.074;2022-12-07T17:37:13;18.87;;;9.57;;
74122;SDS011;62474;50.780;15.074;2022-12-07T17:39:39;16.02;;;8.55;;
74122;SDS011;62474;50.780;15.074;2022-12-07T17:42:05;16.58;;;8.10;;
74122;SDS011;62474;50.780;15.074;2022-12-07T17:44:50;16.80;;;8.98;;
74122;SDS011;62474;50.780;15.074;2022-12-07T17:47:16;16.47;;;8.63;;
74122;SDS011;62474;50.780;15.074;2022-12-07T17:49:43;16.13;;;8.53;;
74122;SDS011;62474;50.780;15.074;2022-12-07T17:52:13;16.20;;;7.93;;
74122;SDS011;62474;50.780;15.074;2022-12-07T17:55:08;15.75;;;8.27;;
74122;SDS011;62474;50.780;15.074;2022-12-07T17:57:34;15.93;;;8.40;;
74122;SDS011;62474;50.780;15.074;2022-12-07T18:00:00;19.50;;;9.40;;
74122;SDS011;62474;50.780;15.074;2022-12-07T18:02:26;18.40;;;9.13;;
74122;SDS011;62474;50.780;15.074;2022-12-07T18:04:52;17.42;;;9.32;;
74122;SDS011;62474;50.780;15.074;2022-12-07T18:07:18;18.45;;;9.60;;
74122;SDS011;62474;50.780;15.074;2022-12-07T18:09:44;17.73;;;8.55;;
74122;SDS011;62474;50.780;15.074;2022-12-07T18:12:10;19.27;;;8.85;;
74122;SDS011;62474;50.780;15.074;2022-12-07T18:14:37;23.20;;;10.33;;
74122;SDS011;62474;50.780;15.074;2022-12-07T18:17:03;23.02;;;11.85;;
74122;SDS011;62474;50.780;15.074;2022-12-07T18:19:29;29.05;;;13.55;;
74122;SDS011;62474;50.780;15.074;2022-12-07T18:21:55;23.52;;;11.80;;
74122;SDS011;62474;50.780;15.074;2022-12-07T18:24:21;21.75;;;9.80;;
74122;SDS011;62474;50.780;15.074;2022-12-07T18:26:47;17.43;;;9.20;;
74122;SDS011;62474;50.780;15.074;2022-12-07T18:29:14;17.02;;;9.55;;
74122;SDS011;62474;50.780;15.074;2022-12-07T18:31:40;17.88;;;8.90;;
74122;SDS011;62474;50.780;15.074;2022-12-07T18:34:08;20.20;;;9.55;;
74122;SDS011;62474;50.780;15.074;2022-12-07T18:36:36;18.17;;;8.77;;
74122;SDS011;62474;50.780;15.074;2022-12-07T18:39:05;17.73;;;8.80;;
74122;SDS011;62474;50.780;15.074;2022-12-07T18:41:32;18.50;;;9.45;;
74122;SDS011;62474;50.780;15.074;2022-12-07T18:43:58;24.67;;;12.27;;
74122;SDS011;62474;50.780;15.074;2022-12-07T18:46:24;26.83;;;11.32;;
74122;SDS011;62474;50.780;15.074;2022-12-07T18:48:50;20.58;;;10.27;;
74122;SDS011;62474;50.780;15.074;2022-12-07T18:51:17;24.13;;;11.90;;
74122;SDS011;62474;50.780;15.074;2022-12-07T18:53:43;18.92;;;9.25;;
74122;SDS011;62474;50.780;15.074;2022-12-07T18:58:35;20.85;;;10.52;;
74122;SDS011;62474;50.780;15.074;2022-12-07T19:01:02;15.80;;;9.07;;
74122;SDS011;62474;50.780;15.074;2022-12-07T19:03:28;18.13;;;9.67;;
74122;SDS011;62474;50.780;15.074;2022-12-07T19:05:55;26.42;;;16.63;;
74122;SDS011;62474;50.780;15.074;2022-12-07T19:08:22;24.23;;;13.25;;
74122;SDS011;62474;50.780;15.074;2022-12-07T19:10:48;26.77;;;13.82;;
74122;SDS011;62474;50.780;15.074;2022-12-07T19:13:14;22.10;;;12.77;;
74122;SDS011;62474;50.780;15.074;2022-12-07T19:15:40;21.93;;;10.67;;
74122;SDS011;62474;50.780;15.074;2022-12-07T19:18:07;17.55;;;8.55;;
74122;SDS011;62474;50.780;15.074;2022-12-07T19:20:33;17.00;;;8.50;;
74122;SDS011;62474;50.780;15.074;2022-12-07T19:22:59;16.75;;;8.68;;
74122;SDS011;62474;50.780;15.074;2022-12-07T19:25:25;19.92;;;9.35;;
74122;SDS011;62474;50.780;15.074;2022-12-07T19:27:51;15.90;;;8.17;;
74122;SDS011;62474;50.780;15.074;2022-12-07T19:30:17;23.85;;;11.93;;
74122;SDS011;62474;50.780;15.074;2022-12-07T19:32:43;26.63;;;12.32;;
74122;SDS011;62474;50.780;15.074;2022-12-07T19:35:09;22.52;;;12.15;;
74122;SDS011;62474;50.780;15.074;2022-12-07T19:37:35;24.08;;;12.32;;
74122;SDS011;62474;50.780;15.074;2022-12-07T19:40:02;25.13;;;12.80;;
74122;SDS011;62474;50.780;15.074;2022-12-07T19:42:28;24.77;;;11.90;;
74122;SDS011;62474;50.780;15.074;2022-12-07T19:44:59;24.13;;;11.45;;
74122;SDS011;62474;50.780;15.074;2022-12-07T19:47:25;21.52;;;11.10;;
74122;SDS011;62474;50.780;15.074;2022-12-07T19:49:51;21.02;;;11.90;;
74122;SDS011;62474;50.780;15.074;2022-12-07T19:52:17;22.13;;;11.10;;
74122;SDS011;62474;50.780;15.074;2022-12-07T19:54:43;24.00;;;10.55;;
74122;SDS011;62474;50.780;15.074;2022-12-07T19:57:09;18.75;;;9.52;;
74122;SDS011;62474;50.780;15.074;2022-12-07T19:59:40;15.73;;;7.68;;
74122;SDS011;62474;50.780;15.074;2022-12-07T20:02:08;14.75;;;7.53;;
74122;SDS011;62474;50.780;15.074;2022-12-07T20:04:36;13.90;;;7.73;;
74122;SDS011;62474;50.780;15.074;2022-12-07T20:07:02;12.18;;;6.50;;
74122;SDS011;62474;50.780;15.074;2022-12-07T20:09:28;13.65;;;6.60;;
74122;SDS011;62474;50.780;15.074;2022-12-07T20:11:54;12.90;;;7.25;;
74122;SDS011;62474;50.780;15.074;2022-12-07T20:14:38;15.38;;;6.75;;
74122;SDS011;62474;50.780;15.074;2022-12-07T20:17:05;12.03;;;5.83;;
74122;SDS011;62474;50.780;15.074;2022-12-07T20:19:31;14.38;;;6.82;;
74122;SDS011;62474;50.780;15.074;2022-12-07T20:21:57;12.90;;;6.07;;
74122;SDS011;62474;50.780;15.074;2022-12-07T20:24:24;12.95;;;6.50;;
74122;SDS011;62474;50.780;15.074;2022-12-07T20:26:50;12.32;;;6.63;;
74122;SDS011;62474;50.780;15.074;2022-12-07T20:29:19;13.80;;;7.23;;
74122;SDS011;62474;50.780;15.074;2022-12-07T20:31:46;15.13;;;6.80;;
74122;SDS011;62474;50.780;15.074;2022-12-07T20:34:12;10.90;;;5.47;;
74122;SDS011;62474;50.780;15.074;2022-12-07T20:36:39;14.13;;;6.63;;
74122;SDS011;62474;50.780;15.074;2022-12-07T20:39:05;15.52;;;6.40;;
74122;SDS011;62474;50.780;15.074;2022-12-07T20:41:32;13.00;;;6.27;;
74122;SDS011;62474;50.780;15.074;2022-12-07T20:44:16;11.43;;;3.85;;
74122;SDS011;62474;50.780;15.074;2022-12-07T20:46:43;11.15;;;5.05;;
74122;SDS011;62474;50.780;15.074;2022-12-07T20:49:10;11.90;;;5.38;;
74122;SDS011;62474;50.780;15.074;2022-12-07T20:51:36;12.98;;;6.03;;
74122;SDS011;62474;50.780;15.074;2022-12-07T20:54:02;12.40;;;5.73;;
74122;SDS011;62474;50.780;15.074;2022-12-07T20:56:29;14.27;;;5.50;;
74122;SDS011;62474;50.780;15.074;2022-12-07T20:58:56;13.48;;;5.95;;
74122;SDS011;62474;50.780;15.074;2022-12-07T21:01:22;13.40;;;5.93;;
